Time;durP1;ratioP1;P1;durP2;ratioP2;P2;SDS_P1;SDS_P2;PMS_P1;PMS_P2;Temp;Humidity;BMP_temperature;BMP_pressure;BME280_temperature;BME280_humidity;BME280_pressure;Samples;Min_cycle;Max_cycle;Signal;HPM_P1;HPM_P2
2022/09/09 00:02:21;;;;;;;4.30;0.80;;;21.60;98.50;;;;;;4924365;29;20545;-81
2022/09/09 00:05:01;;;;;;;0.80;0.80;;;21.60;96.10;;;;;;4930578;29;20479;-81
2022/09/09 00:07:42;;;;;;;0.60;0.60;;;21.40;97.00;;;;;;4931634;29;20457;-81
2022/09/09 00:10:29;;;;;;;2.93;1.10;;;21.50;95.60;;;;;;4936418;29;20460;-81
2022/09/09 00:13:06;;;;;;;1.97;0.70;;;21.50;95.20;;;;;;4927430;29;20468;-81
2022/09/09 00:15:43;;;;;;;0.77;0.73;;;21.50;95.20;;;;;;4927397;29;20449;-82
2022/09/09 00:18:21;;;;;;;2.53;0.90;;;21.50;95.60;;;;;;4927807;29;20453;-81
2022/09/09 00:20:57;;;;;;;0.90;0.70;;;21.50;95.70;;;;;;4926355;29;20477;-81
2022/09/09 00:23:28;;;;;;;0.93;0.83;;;21.40;95.20;;;;;;4927780;29;21426;-81
2022/09/09 00:26:04;;;;;;;2.33;0.70;;;21.40;95.90;;;;;;4930430;29;20559;-81
2022/09/09 00:28:39;;;;;;;0.70;0.70;;;21.50;96.20;;;;;;4931025;29;20504;-81
2022/09/09 00:31:14;;;;;;;1.90;1.20;;;21.50;98.00;;;;;;4928758;29;20527;-81
2022/09/09 00:33:43;;;;;;;1.50;0.73;;;21.50;98.40;;;;;;4926425;29;20842;-82
2022/09/09 00:36:16;;;;;;;1.00;0.70;;;21.50;98.50;;;;;;4927837;29;20457;-81
2022/09/09 00:38:49;;;;;;;2.07;0.80;;;21.50;98.90;;;;;;4932037;29;20995;-81
2022/09/09 00:41:22;;;;;;;4.10;0.87;;;21.50;99.10;;;;;;4930730;29;20540;-81
2022/09/09 00:43:59;;;;;;;2.17;0.70;;;21.40;99.00;;;;;;4929120;29;20504;-81
2022/09/09 00:46:50;;;;;;;1.13;0.90;;;21.40;99.00;;;;;;4931339;29;20983;-80
2022/09/09 00:49:32;;;;;;;1.10;0.70;;;21.30;98.30;;;;;;4925911;29;20516;-81
2022/09/09 00:52:13;;;;;;;0.70;0.70;;;21.30;99.70;;;;;;4926056;29;20491;-81
2022/09/09 00:54:49;;;;;;;1.03;0.70;;;21.30;99.20;;;;;;4929098;29;20503;-81
2022/09/09 00:57:28;;;;;;;1.53;0.70;;;21.30;99.60;;;;;;4927941;29;20517;-81
2022/09/09 01:00:21;;;;;;;2.73;1.07;;;21.30;97.80;;;;;;4928134;29;21067;-82
2022/09/09 01:03:24;;;;;;;0.70;0.70;;;21.30;99.00;;;;;;4931998;29;20544;-81
2022/09/09 01:06:02;;;;;;;2.10;0.80;;;21.40;99.80;;;;;;4932202;29;21834;-81
2022/09/09 01:08:46;;;;;;;2.60;0.97;;;21.30;99.90;;;;;;4934268;29;20984;-81
2022/09/09 01:11:22;;;;;;;1.00;0.77;;;21.30;99.70;;;;;;4935025;28;21285;-80
2022/09/09 01:13:58;;;;;;;1.00;0.90;;;21.30;99.90;;;;;;4928785;29;21066;-81
2022/09/09 01:16:29;;;;;;;0.90;0.80;;;21.30;99.60;;;;;;4933272;29;20453;-81
2022/09/09 01:19:00;;;;;;;1.60;0.83;;;21.20;97.40;;;;;;4934163;29;20456;-81
2022/09/09 01:21:38;;;;;;;0.70;0.60;;;21.10;97.80;;;;;;4930873;29;20480;-81
2022/09/09 01:24:24;;;;;;;1.47;0.80;;;21.20;97.00;;;;;;4928884;29;20539;-80
2022/09/09 01:26:57;;;;;;;2.83;0.90;;;21.20;97.60;;;;;;4930383;29;20468;-81
2022/09/09 01:29:26;;;;;;;0.63;0.60;;;21.20;98.50;;;;;;4936165;29;21020;-80
2022/09/09 01:31:56;;;;;;;0.77;0.60;;;21.20;98.00;;;;;;4934766;29;20488;-81
2022/09/09 01:34:26;;;;;;;0.93;0.63;;;21.20;97.30;;;;;;4929283;29;20472;-80
2022/09/09 01:36:58;;;;;;;1.47;0.60;;;21.30;97.30;;;;;;4929690;29;20489;-80
2022/09/09 01:39:27;;;;;;;1.03;0.60;;;21.30;97.40;;;;;;4934273;29;20577;-81
2022/09/09 01:41:57;;;;;;;1.37;1.07;;;21.30;98.40;;;;;;4930333;29;20484;-81
2022/09/09 01:44:26;;;;;;;1.00;0.80;;;21.30;98.30;;;;;;4931934;29;20548;-82
2022/09/09 01:46:54;;;;;;;1.30;0.97;;;21.40;98.00;;;;;;4930094;29;20456;-81
2022/09/09 01:49:23;;;;;;;2.57;0.77;;;21.40;99.20;;;;;;4931316;29;21047;-80
2022/09/09 01:51:54;;;;;;;2.40;0.80;;;21.30;97.80;;;;;;4932520;28;20572;-80
2022/09/09 01:54:26;;;;;;;0.93;0.80;;;21.30;98.30;;;;;;4927954;29;20453;-80
2022/09/09 01:57:08;;;;;;;1.67;1.47;;;21.30;99.20;;;;;;4926200;29;20548;-80
2022/09/09 02:00:02;;;;;;;0.60;0.60;;;21.20;98.40;;;;;;4930675;29;20484;-80
2022/09/09 02:02:34;;;;;;;3.47;0.80;;;21.20;97.80;;;;;;4928413;29;20579;-80
2022/09/09 02:05:12;;;;;;;1.27;0.67;;;21.20;97.90;;;;;;4934651;29;20555;-81
2022/09/09 02:07:43;;;;;;;0.70;0.70;;;21.20;97.70;;;;;;4933052;29;20488;-81
2022/09/09 02:10:15;;;;;;;0.77;0.60;;;21.20;97.70;;;;;;4929723;29;20509;-81
2022/09/09 02:12:49;;;;;;;0.87;0.70;;;21.20;97.30;;;;;;4931125;29;20594;-81
2022/09/09 02:15:22;;;;;;;0.80;0.73;;;21.20;97.40;;;;;;4939592;29;20460;-81
2022/09/09 02:17:52;;;;;;;1.03;0.93;;;21.20;98.80;;;;;;4935428;29;20495;-82
2022/09/09 02:20:21;;;;;;;1.53;0.70;;;21.20;97.80;;;;;;4937205;29;21021;-81
2022/09/09 02:22:52;;;;;;;0.77;0.60;;;21.20;99.10;;;;;;4938566;29;20461;-81
2022/09/09 02:25:24;;;;;;;1.37;0.90;;;21.10;98.70;;;;;;4928438;29;20571;-81
2022/09/09 02:27:53;;;;;;;1.17;0.70;;;21.10;98.40;;;;;;4936870;29;20601;-81
2022/09/09 02:30:22;;;;;;;2.57;0.73;;;21.10;99.60;;;;;;4929779;29;20465;-80
2022/09/09 02:32:56;;;;;;;1.73;0.60;;;21.10;98.20;;;;;;4932737;29;20460;-81
2022/09/09 02:35:26;;;;;;;1.70;0.80;;;21.10;98.00;;;;;;4936420;29;20484;-80
2022/09/09 02:37:59;;;;;;;0.93;0.80;;;21.10;97.30;;;;;;4934662;29;20489;-81
2022/09/09 02:40:27;;;;;;;0.73;0.73;;;21.10;98.20;;;;;;4933150;29;20477;-80
2022/09/09 02:42:56;;;;;;;1.33;0.80;;;21.10;99.00;;;;;;4929427;29;20497;-80
2022/09/09 02:45:28;;;;;;;0.77;0.70;;;21.10;99.20;;;;;;4932727;29;20582;-80
2022/09/09 02:48:04;;;;;;;2.03;0.90;;;21.00;98.00;;;;;;4933383;29;20519;-81
2022/09/09 02:50:35;;;;;;;0.80;0.70;;;21.00;98.10;;;;;;4928541;28;20453;-81
2022/09/09 02:53:11;;;;;;;1.97;0.70;;;21.00;97.20;;;;;;4938986;29;20459;-81
2022/09/09 02:55:42;;;;;;;0.73;0.70;;;20.90;96.50;;;;;;4935738;29;20552;-81
2022/09/09 02:58:16;;;;;;;1.10;0.50;;;20.90;96.80;;;;;;4938504;29;20567;-81
2022/09/09 03:00:47;;;;;;;1.50;0.50;;;20.90;97.20;;;;;;4928314;28;20487;-81
2022/09/09 03:03:17;;;;;;;1.10;0.60;;;20.90;96.20;;;;;;4939036;29;21067;-80
2022/09/09 03:05:45;;;;;;;0.73;0.63;;;20.70;96.80;;;;;;4940903;28;21352;-81
2022/09/09 03:08:13;;;;;;;0.97;0.70;;;20.70;96.80;;;;;;4940438;29;20471;-80
2022/09/09 03:10:42;;;;;;;1.53;0.70;;;20.70;97.40;;;;;;4934398;28;20456;-80
2022/09/09 03:13:12;;;;;;;0.70;0.70;;;20.70;96.30;;;;;;4932829;29;20488;-80
2022/09/09 03:15:40;;;;;;;1.53;1.10;;;20.60;98.30;;;;;;4928875;29;20838;-79
2022/09/09 03:18:08;;;;;;;0.60;0.60;;;20.60;97.90;;;;;;4936119;29;20487;-80
2022/09/09 03:20:36;;;;;;;1.40;0.70;;;20.60;98.20;;;;;;4929600;28;20518;-80
2022/09/09 03:23:04;;;;;;;3.03;1.10;;;20.50;97.40;;;;;;4930343;29;20468;-81
2022/09/09 03:25:33;;;;;;;1.20;0.53;;;20.50;99.20;;;;;;4940919;29;20461;-80
2022/09/09 03:28:02;;;;;;;1.73;0.60;;;20.60;99.90;;;;;;4939156;29;20523;-80
2022/09/09 03:30:31;;;;;;;1.87;0.70;;;20.60;97.80;;;;;;4940679;28;20473;-81
2022/09/09 03:32:59;;;;;;;1.23;0.60;;;20.60;99.70;;;;;;4933678;28;20515;-81
2022/09/09 03:35:27;;;;;;;2.30;0.60;;;20.70;99.90;;;;;;4934120;29;20461;-80
2022/09/09 03:37:55;;;;;;;0.70;0.60;;;20.70;99.90;;;;;;4934302;29;20704;-80
2022/09/09 03:40:24;;;;;;;2.50;0.60;;;20.80;99.90;;;;;;4922582;29;20531;-80
2022/09/09 03:43:00;;;;;;;1.47;0.80;;;20.70;99.90;;;;;;5063642;28;20561;-80
2022/09/09 03:45:28;;;;;;;2.40;1.00;;;20.70;99.90;;;;;;5043474;28;21260;-80
2022/09/09 03:47:56;;;;;;;1.13;0.70;;;20.70;99.90;;;;;;5043259;28;21268;-79
2022/09/09 03:50:25;;;;;;;1.87;0.60;;;20.70;99.40;;;;;;5042481;28;20450;-79
2022/09/09 03:52:53;;;;;;;0.53;0.53;;;20.70;99.90;;;;;;5042500;28;20546;-79
2022/09/09 03:55:21;;;;;;;1.00;0.60;;;20.70;99.90;;;;;;5043261;28;20861;-79
2022/09/09 03:57:49;;;;;;;0.80;0.60;;;20.70;99.90;;;;;;5038679;28;20559;-79
2022/09/09 04:00:19;;;;;;;0.70;0.60;;;20.70;99.90;;;;;;5040863;28;20966;-79
2022/09/09 04:02:47;;;;;;;1.43;0.70;;;20.60;99.90;;;;;;5043107;28;21034;-80
2022/09/09 04:05:15;;;;;;;1.07;0.70;;;20.50;99.90;;;;;;5048026;28;20574;-80
2022/09/09 04:07:43;;;;;;;0.70;0.70;;;20.40;99.10;;;;;;5047247;28;21017;-79
2022/09/09 04:10:11;;;;;;;1.43;0.73;;;20.40;99.90;;;;;;5046940;28;20462;-80
2022/09/09 04:12:39;;;;;;;1.57;0.83;;;20.50;99.90;;;;;;5043954;28;21014;-79
2022/09/09 04:15:08;;;;;;;0.80;0.57;;;20.50;99.20;;;;;;5046423;28;20460;-79
2022/09/09 04:17:38;;;;;;;0.60;0.60;;;20.40;98.60;;;;;;5043684;28;20456;-79
2022/09/09 04:20:11;;;;;;;0.77;0.67;;;20.40;99.90;;;;;;5046544;28;20542;-80
2022/09/09 04:22:39;;;;;;;1.20;0.70;;;20.30;98.20;;;;;;5043343;28;20515;-79
2022/09/09 04:25:08;;;;;;;1.27;0.87;;;20.10;98.00;;;;;;5043679;28;20463;-79
2022/09/09 04:27:36;;;;;;;1.50;0.77;;;20.00;98.70;;;;;;5034258;28;20525;-79
2022/09/09 04:30:05;;;;;;;1.07;0.70;;;20.20;99.90;;;;;;5040119;28;20997;-79
2022/09/09 04:32:33;;;;;;;0.90;0.80;;;20.20;99.90;;;;;;5045916;28;20468;-80
2022/09/09 04:35:03;;;;;;;2.77;0.87;;;20.20;99.90;;;;;;5045596;28;20487;-79
2022/09/09 04:37:31;;;;;;;2.90;0.90;;;20.30;99.90;;;;;;5044763;28;20453;-80
2022/09/09 04:40:01;;;;;;;1.27;0.90;;;20.30;99.90;;;;;;5042416;28;20470;-80
2022/09/09 04:42:30;;;;;;;1.10;1.00;;;20.30;99.90;;;;;;5042021;28;20487;-79
2022/09/09 04:44:58;;;;;;;1.40;0.93;;;20.40;99.90;;;;;;5040922;28;20506;-79
2022/09/09 04:47:26;;;;;;;2.10;0.70;;;20.40;99.90;;;;;;5043385;28;20877;-79
2022/09/09 04:49:54;;;;;;;1.53;1.43;;;20.40;99.90;;;;;;5042851;28;20474;-79
2022/09/09 04:52:24;;;;;;;1.00;0.90;;;20.40;99.90;;;;;;5038768;28;20486;-79
2022/09/09 04:54:53;;;;;;;0.77;0.70;;;20.40;99.90;;;;;;5029339;28;20521;-79
2022/09/09 04:57:21;;;;;;;0.67;0.67;;;20.40;99.90;;;;;;5026079;28;21046;-81
2022/09/09 04:59:50;;;;;;;0.70;0.70;;;20.30;99.90;;;;;;5027299;28;20452;-80
2022/09/09 05:02:18;;;;;;;0.70;0.70;;;20.30;99.90;;;;;;5026857;28;20514;-80
2022/09/09 05:04:46;;;;;;;0.90;0.60;;;20.40;99.90;;;;;;5021349;28;20810;-79
2022/09/09 05:07:14;;;;;;;1.87;0.80;;;20.40;99.90;;;;;;5027714;28;20507;-80
2022/09/09 05:09:45;;;;;;;0.60;0.60;;;20.40;99.90;;;;;;5030697;28;21009;-80
2022/09/09 05:12:13;;;;;;;0.70;0.70;;;20.20;99.90;;;;;;5025529;28;20475;-80
2022/09/09 05:14:41;;;;;;;1.17;0.80;;;20.00;99.90;;;;;;5027273;28;20554;-79
2022/09/09 05:17:09;;;;;;;1.37;1.27;;;20.10;99.90;;;;;;5025722;28;20459;-79
2022/09/09 05:19:38;;;;;;;0.60;0.60;;;20.20;99.90;;;;;;5027612;28;20502;-80
2022/09/09 05:22:07;;;;;;;4.83;1.03;;;20.20;99.90;;;;;;5027478;28;20484;-79
2022/09/09 05:24:36;;;;;;;0.90;0.80;;;20.30;99.90;;;;;;5024862;28;20496;-80
2022/09/09 05:27:06;;;;;;;1.10;0.90;;;20.40;99.90;;;;;;5032832;28;20453;-81
2022/09/09 05:29:34;;;;;;;1.40;0.90;;;20.60;99.90;;;;;;5026546;28;20558;-80
2022/09/09 05:32:04;;;;;;;0.73;0.73;;;20.60;99.90;;;;;;5026666;28;20506;-80
2022/09/09 05:34:33;;;;;;;1.80;0.90;;;20.50;99.90;;;;;;5023902;28;21125;-80
2022/09/09 05:37:02;;;;;;;2.33;0.60;;;20.40;99.90;;;;;;5022213;28;20466;-81
2022/09/09 05:39:32;;;;;;;3.60;1.00;;;20.40;99.90;;;;;;5022949;28;20967;-80
2022/09/09 05:42:01;;;;;;;0.93;0.90;;;20.20;99.90;;;;;;5024716;28;20485;-80
2022/09/09 05:44:30;;;;;;;1.63;0.80;;;20.30;99.90;;;;;;5027344;28;20459;-80
2022/09/09 05:46:59;;;;;;;2.80;0.80;;;20.40;99.90;;;;;;5026646;28;20955;-79
2022/09/09 05:49:28;;;;;;;0.80;0.80;;;20.40;99.90;;;;;;5025528;28;20464;-80
2022/09/09 05:51:58;;;;;;;1.70;0.70;;;20.40;99.90;;;;;;5023135;28;20923;-80
2022/09/09 05:54:28;;;;;;;1.73;1.10;;;20.50;99.90;;;;;;5026621;28;20885;-81
2022/09/09 05:56:59;;;;;;;1.83;0.80;;;20.50;99.90;;;;;;5024866;28;20451;-80
2022/09/09 05:59:28;;;;;;;1.10;0.70;;;20.50;99.90;;;;;;5023217;28;20507;-81
2022/09/09 06:02:00;;;;;;;2.70;0.77;;;20.60;99.90;;;;;;5029299;28;20473;-80
2022/09/09 06:04:30;;;;;;;0.97;0.80;;;20.40;99.90;;;;;;5028799;28;20714;-80
2022/09/09 06:06:59;;;;;;;1.00;0.90;;;20.20;99.90;;;;;;5030568;28;20765;-80
2022/09/09 06:09:30;;;;;;;2.30;1.27;;;20.20;99.90;;;;;;5027998;28;20487;-81
2022/09/09 06:11:59;;;;;;;1.00;0.90;;;20.20;99.90;;;;;;5029129;28;20508;-81
2022/09/09 06:14:28;;;;;;;2.00;0.87;;;20.20;99.90;;;;;;5027414;28;20448;-81
2022/09/09 06:16:58;;;;;;;3.27;0.80;;;20.30;99.90;;;;;;5029432;28;20452;-80
2022/09/09 06:19:26;;;;;;;1.47;0.87;;;20.20;99.90;;;;;;5025594;28;20444;-80
2022/09/09 06:21:55;;;;;;;1.27;1.00;;;20.20;99.90;;;;;;5020163;28;20548;-81
2022/09/09 06:24:24;;;;;;;0.80;0.77;;;20.20;99.90;;;;;;5026419;28;20483;-80
2022/09/09 06:26:54;;;;;;;0.80;0.80;;;20.30;99.90;;;;;;5040997;28;20456;-81
2022/09/09 06:29:22;;;;;;;0.70;0.70;;;20.40;99.90;;;;;;5024715;28;20206;-80
2022/09/09 06:31:50;;;;;;;1.90;0.90;;;20.50;99.90;;;;;;5026449;28;20487;-80
2022/09/09 06:34:20;;;;;;;0.73;0.70;;;20.40;99.90;;;;;;5022275;28;20457;-80
2022/09/09 06:36:49;;;;;;;2.10;0.87;;;20.50;99.90;;;;;;5043302;28;20456;-80
2022/09/09 06:39:17;;;;;;;0.80;0.80;;;20.60;99.90;;;;;;5025634;28;20488;-81
2022/09/09 06:41:45;;;;;;;1.00;0.90;;;20.60;99.90;;;;;;5022234;28;20488;-81
2022/09/09 06:44:15;;;;;;;1.43;0.87;;;20.70;99.90;;;;;;5022714;28;20481;-81
2022/09/09 06:46:44;;;;;;;1.53;0.87;;;20.80;99.90;;;;;;5025738;28;20456;-81
2022/09/09 06:49:12;;;;;;;1.00;1.00;;;20.90;99.90;;;;;;5026727;28;20509;-80
2022/09/09 06:51:43;;;;;;;2.37;0.87;;;20.90;99.90;;;;;;5029202;28;20518;-81
2022/09/09 06:54:13;;;;;;;2.57;1.00;;;20.90;99.90;;;;;;5030465;28;20444;-80
2022/09/09 06:56:42;;;;;;;0.80;0.80;;;20.90;99.90;;;;;;5027317;28;20829;-81
2022/09/09 06:59:12;;;;;;;2.53;0.83;;;21.00;99.90;;;;;;5034564;28;20534;-81
2022/09/09 07:01:42;;;;;;;1.27;1.07;;;21.00;99.90;;;;;;5028850;28;20554;-81
2022/09/09 07:04:12;;;;;;;3.63;1.00;;;21.10;99.90;;;;;;5028545;28;20483;-81
2022/09/09 07:06:44;;;;;;;0.90;0.80;;;21.10;99.90;;;;;;5027024;28;20476;-81
2022/09/09 07:09:14;;;;;;;1.00;0.70;;;21.10;99.90;;;;;;5033975;28;20820;-81
2022/09/09 07:11:45;;;;;;;1.70;1.10;;;21.10;99.90;;;;;;5030971;28;20559;-81
2022/09/09 07:14:14;;;;;;;1.00;0.83;;;21.10;99.90;;;;;;5022454;28;20457;-80
2022/09/09 07:16:42;;;;;;;1.93;0.80;;;21.10;99.90;;;;;;5022903;28;20453;-81
2022/09/09 07:19:11;;;;;;;2.90;0.83;;;21.10;99.90;;;;;;5024580;28;20494;-81
2022/09/09 07:21:40;;;;;;;1.90;1.10;;;21.10;99.90;;;;;;5024416;28;20543;-81
2022/09/09 07:24:12;;;;;;;1.10;0.90;;;21.20;99.90;;;;;;5024697;28;20688;-81
2022/09/09 07:26:41;;;;;;;2.13;0.97;;;21.00;99.90;;;;;;5025280;28;20456;-81
2022/09/09 07:29:13;;;;;;;0.90;0.80;;;21.00;99.90;;;;;;5020068;28;20568;-81
2022/09/09 07:31:48;;;;;;;1.10;0.80;;;21.20;99.90;;;;;;5020648;28;20479;-81
2022/09/09 07:34:16;;;;;;;2.80;0.80;;;21.20;99.90;;;;;;5025340;28;20452;-80
2022/09/09 07:36:46;;;;;;;0.70;0.70;;;21.20;99.90;;;;;;5024834;28;21088;-81
2022/09/09 07:39:17;;;;;;;1.27;0.80;;;21.20;99.90;;;;;;5022668;28;20463;-81
2022/09/09 07:41:47;;;;;;;2.20;0.80;;;21.20;99.90;;;;;;5021804;28;20484;-81
2022/09/09 07:44:18;;;;;;;2.20;0.90;;;21.20;99.90;;;;;;5023898;28;21060;-81
2022/09/09 07:46:46;;;;;;;1.30;1.00;;;21.30;99.90;;;;;;5024027;28;20481;-81
2022/09/09 07:49:15;;;;;;;2.30;0.80;;;21.30;99.90;;;;;;5021294;28;20456;-81
2022/09/09 07:51:45;;;;;;;1.83;0.70;;;21.40;99.90;;;;;;5022037;28;20480;-81
2022/09/09 07:54:17;;;;;;;1.10;0.87;;;21.50;99.90;;;;;;5022690;28;20971;-81
2022/09/09 07:56:46;;;;;;;1.40;0.80;;;21.70;99.90;;;;;;5024766;28;20870;-81
2022/09/09 07:59:15;;;;;;;2.23;0.93;;;21.80;99.90;;;;;;5023883;28;20452;-81
2022/09/09 08:01:45;;;;;;;1.80;0.73;;;21.90;99.90;;;;;;5038267;28;20526;-81
2022/09/09 08:04:16;;;;;;;2.77;0.80;;;22.00;99.90;;;;;;5024996;28;20975;-81
2022/09/09 08:06:47;;;;;;;2.73;0.80;;;22.10;99.90;;;;;;5023500;28;21115;-81
2022/09/09 08:09:17;;;;;;;2.57;0.70;;;22.00;99.90;;;;;;5022721;28;20455;-81
2022/09/09 08:11:45;;;;;;;1.50;0.80;;;22.10;99.90;;;;;;5020638;28;20475;-81
2022/09/09 08:14:15;;;;;;;0.87;0.70;;;22.20;99.90;;;;;;5022716;28;20445;-81
2022/09/09 08:16:45;;;;;;;1.00;0.70;;;22.30;99.90;;;;;;5021608;28;20460;-81
2022/09/09 08:19:15;;;;;;;0.77;0.77;;;22.40;99.90;;;;;;5024038;28;20456;-81
2022/09/09 08:21:44;;;;;;;4.90;0.80;;;22.40;99.90;;;;;;5023922;28;20480;-81
2022/09/09 08:24:13;;;;;;;3.90;0.80;;;22.50;99.90;;;;;;5023661;28;20468;-81
2022/09/09 08:26:45;;;;;;;1.83;0.80;;;22.50;99.90;;;;;;5022008;28;20461;-81
2022/09/09 08:29:14;;;;;;;2.93;0.80;;;22.30;99.90;;;;;;5026407;28;20854;-81
2022/09/09 08:31:43;;;;;;;3.23;1.10;;;22.20;99.90;;;;;;5026184;28;21278;-81
2022/09/09 08:34:12;;;;;;;3.27;0.90;;;22.30;99.90;;;;;;5027342;28;20456;-81
2022/09/09 08:36:43;;;;;;;0.90;0.70;;;22.50;99.90;;;;;;5028163;28;20499;-81
2022/09/09 08:39:13;;;;;;;1.70;0.90;;;22.50;99.90;;;;;;5028293;28;20461;-81
2022/09/09 08:42:14;;;;;;;2.20;1.20;;;22.40;99.90;;;;;;5025097;28;20500;-81
2022/09/09 08:44:55;;;;;;;3.23;0.97;;;22.40;99.90;;;;;;5025558;28;20505;-82
2022/09/09 08:47:33;;;;;;;1.20;0.90;;;22.50;99.90;;;;;;5025024;28;21072;-82
2022/09/09 08:50:16;;;;;;;1.70;0.80;;;22.60;99.90;;;;;;5026884;28;20526;-81
2022/09/09 08:52:52;;;;;;;1.87;0.80;;;22.60;99.90;;;;;;5024979;28;20477;-81
2022/09/09 08:55:28;;;;;;;1.53;0.77;;;22.40;99.90;;;;;;5028113;28;20444;-81
2022/09/09 08:58:10;;;;;;;3.20;0.80;;;22.10;99.90;;;;;;5027756;28;20600;-81
2022/09/09 09:00:45;;;;;;;1.50;0.83;;;22.10;99.90;;;;;;5026321;28;20468;-80
2022/09/09 09:03:22;;;;;;;1.40;0.80;;;22.10;99.90;;;;;;5025144;28;20444;-80
2022/09/09 09:06:00;;;;;;;1.70;0.80;;;22.30;99.90;;;;;;5026698;28;20452;-81
2022/09/09 09:08:37;;;;;;;0.87;0.70;;;22.00;99.90;;;;;;5022425;28;20452;-80
2022/09/09 09:11:06;;;;;;;1.60;0.60;;;21.90;99.90;;;;;;5027255;28;21013;-81
2022/09/09 09:13:44;;;;;;;2.57;0.70;;;21.70;99.90;;;;;;5027008;28;20472;-80
2022/09/09 09:16:21;;;;;;;0.93;0.63;;;21.60;99.90;;;;;;5025246;28;20466;-80
2022/09/09 09:18:50;;;;;;;1.07;0.63;;;21.40;99.90;;;;;;5025561;28;20443;-80
2022/09/09 09:21:28;;;;;;;0.80;0.60;;;21.10;99.90;;;;;;5028705;28;20475;-80
2022/09/09 09:23:58;;;;;;;0.50;0.50;;;21.00;99.90;;;;;;5027427;28;20495;-80
2022/09/09 09:26:31;;;;;;;1.03;0.70;;;21.20;99.90;;;;;;5028450;28;20464;-81
2022/09/09 09:29:11;;;;;;;0.77;0.53;;;21.40;99.90;;;;;;5027212;28;20555;-80
2022/09/09 09:31:39;;;;;;;0.53;0.53;;;21.30;99.90;;;;;;5024932;28;20483;-80
2022/09/09 09:34:11;;;;;;;0.87;0.60;;;21.50;99.90;;;;;;5029118;28;20514;-80
2022/09/09 09:36:44;;;;;;;1.23;0.90;;;21.70;99.90;;;;;;5024265;28;20460;-83
2022/09/09 09:39:24;;;;;;;4.30;0.80;;;21.90;99.90;;;;;;5026109;28;20986;-81
2022/09/09 09:42:14;;;;;;;2.20;0.93;;;21.90;99.90;;;;;;5021912;28;20495;-80
2022/09/09 09:44:50;;;;;;;0.73;0.73;;;22.10;99.90;;;;;;5026078;28;20499;-81
2022/09/09 09:47:19;;;;;;;1.20;1.03;;;22.20;99.90;;;;;;5025130;28;21143;-80
2022/09/09 09:49:55;;;;;;;2.93;0.80;;;22.30;99.90;;;;;;5024917;28;20474;-81
2022/09/09 09:52:25;;;;;;;3.33;0.80;;;22.40;99.90;;;;;;5023196;28;20570;-81
2022/09/09 09:54:55;;;;;;;1.77;1.00;;;22.60;99.90;;;;;;5020450;28;20453;-81
2022/09/09 09:57:29;;;;;;;1.10;0.90;;;22.60;99.90;;;;;;5022449;28;20533;-81
2022/09/09 10:00:16;;;;;;;0.90;0.87;;;22.60;99.90;;;;;;5025779;28;20537;-81
2022/09/09 10:02:47;;;;;;;1.50;1.10;;;22.60;99.90;;;;;;5026634;28;20481;-81
2022/09/09 10:05:19;;;;;;;2.80;0.90;;;22.80;99.90;;;;;;5028182;28;20485;-81
2022/09/09 10:08:06;;;;;;;2.73;0.83;;;22.80;99.90;;;;;;5026050;28;20467;-82
2022/09/09 10:10:50;;;;;;;1.27;0.90;;;22.90;99.90;;;;;;5025854;28;20860;-81
2022/09/09 10:13:27;;;;;;;0.97;0.70;;;23.00;99.90;;;;;;5026767;28;20842;-81
2022/09/09 10:16:08;;;;;;;3.60;1.30;;;23.00;99.90;;;;;;5024513;28;20528;-81
2022/09/09 10:18:46;;;;;;;0.70;0.60;;;23.00;99.90;;;;;;5024754;28;20465;-81
2022/09/09 10:21:30;;;;;;;1.30;0.90;;;23.00;99.90;;;;;;5024672;28;20501;-82
2022/09/09 10:24:24;;;;;;;1.43;1.30;;;23.20;99.90;;;;;;5029074;28;20455;-82
2022/09/09 10:27:01;;;;;;;1.13;0.80;;;23.20;99.90;;;;;;5027525;28;20463;-81
2022/09/09 10:29:43;;;;;;;3.17;0.97;;;23.30;99.90;;;;;;5026140;28;21046;-81
2022/09/09 10:32:40;;;;;;;0.90;0.80;;;23.10;99.90;;;;;;5028826;28;20462;-81
2022/09/09 10:35:20;;;;;;;2.17;0.80;;;23.10;99.90;;;;;;5018406;28;20501;-81
2022/09/09 10:38:18;;;;;;;3.60;1.07;;;23.10;99.90;;;;;;5023988;28;20880;-81
2022/09/09 10:41:12;;;;;;;2.37;0.80;;;23.10;99.90;;;;;;5022665;28;20559;-81
2022/09/09 10:44:06;;;;;;;2.00;0.70;;;23.20;99.90;;;;;;5017222;28;21630;-81
2022/09/09 10:46:49;;;;;;;2.13;0.93;;;23.30;99.90;;;;;;5025215;28;20483;-81
2022/09/09 10:49:36;;;;;;;0.90;0.70;;;23.30;99.90;;;;;;5024599;28;20459;-82
2022/09/09 10:52:15;;;;;;;1.60;0.90;;;23.40;99.90;;;;;;5022438;28;20486;-81
2022/09/09 10:54:58;;;;;;;1.77;1.53;;;23.50;99.90;;;;;;5025328;28;20451;-81
2022/09/09 10:57:32;;;;;;;1.63;0.80;;;23.60;99.90;;;;;;5024069;28;20471;-81
2022/09/09 11:00:06;;;;;;;1.00;0.90;;;23.60;99.90;;;;;;5042797;28;20869;-81
2022/09/09 11:02:35;;;;;;;2.00;0.90;;;23.70;99.90;;;;;;5044858;28;20998;-81
2022/09/09 11:05:15;;;;;;;1.57;0.80;;;23.80;99.90;;;;;;5024090;28;20529;-81
2022/09/09 11:07:50;;;;;;;5.60;0.67;;;23.80;99.90;;;;;;5025955;28;20998;-81
2022/09/09 11:10:25;;;;;;;1.90;0.80;;;23.70;99.90;;;;;;5023949;28;20452;-81
2022/09/09 11:13:00;;;;;;;0.80;0.60;;;23.70;99.90;;;;;;5026356;28;20903;-82
2022/09/09 11:15:34;;;;;;;1.40;0.70;;;23.50;99.90;;;;;;5025666;28;20451;-76
2022/09/09 11:18:05;;;;;;;1.40;0.60;;;23.40;99.90;;;;;;5027755;28;20542;-76
2022/09/09 11:20:35;;;;;;;2.00;0.50;;;23.30;99.90;;;;;;5026810;28;20493;-75
2022/09/09 11:23:10;;;;;;;1.10;0.60;;;23.10;99.90;;;;;;5022775;28;20448;-75
2022/09/09 11:25:43;;;;;;;0.73;0.60;;;22.90;99.90;;;;;;5023212;28;20485;-75
2022/09/09 11:28:33;;;;;;;0.80;0.53;;;22.70;99.90;;;;;;5023504;28;20465;-75
2022/09/09 11:31:15;;;;;;;1.00;0.50;;;22.80;99.90;;;;;;5021320;28;20555;-75
2022/09/09 11:34:09;;;;;;;0.90;0.50;;;22.80;99.90;;;;;;5032959;28;20460;-75
2022/09/09 11:36:55;;;;;;;0.40;0.40;;;22.80;99.90;;;;;;5017099;28;20463;-76
2022/09/09 11:39:47;;;;;;;0.70;0.50;;;22.20;99.90;;;;;;5021865;28;20970;-76
2022/09/09 11:42:19;;;;;;;0.83;0.50;;;22.70;99.90;;;;;;5020887;28;20480;-75
2022/09/09 11:44:48;;;;;;;0.40;0.40;;;22.60;99.90;;;;;;5019395;28;20460;-76
2022/09/09 11:47:24;;;;;;;0.40;0.40;;;22.60;99.90;;;;;;5019626;28;20469;-75
2022/09/09 11:49:53;;;;;;;1.10;0.50;;;22.70;99.90;;;;;;5018163;28;21461;-75
2022/09/09 11:52:26;;;;;;;0.50;0.50;;;22.80;99.90;;;;;;5023969;28;20509;-75
2022/09/09 11:54:57;;;;;;;0.50;0.40;;;22.80;99.90;;;;;;5021933;28;20487;-75
2022/09/09 11:57:31;;;;;;;0.40;0.40;;;22.90;99.90;;;;;;5031352;28;20460;-76
2022/09/09 12:00:00;;;;;;;0.70;0.47;;;22.90;99.90;;;;;;5024954;28;20461;-75
2022/09/09 12:02:30;;;;;;;1.60;0.40;;;22.70;99.90;;;;;;5026672;28;20563;-75
2022/09/09 12:05:05;;;;;;;0.60;0.50;;;22.70;99.90;;;;;;5030833;28;20443;-75
2022/09/09 12:07:38;;;;;;;2.20;0.40;;;22.70;99.90;;;;;;5027813;28;20532;-75
2022/09/09 12:10:23;;;;;;;0.40;0.40;;;22.60;99.90;;;;;;5027445;28;20798;-75
2022/09/09 12:12:51;;;;;;;0.80;0.40;;;22.60;99.90;;;;;;5029041;28;20575;-75
2022/09/09 12:15:27;;;;;;;0.40;0.40;;;22.70;99.90;;;;;;5020653;28;20460;-76
2022/09/09 12:17:58;;;;;;;0.50;0.40;;;22.80;99.90;;;;;;5037827;28;20484;-75
2022/09/09 12:20:35;;;;;;;1.20;0.47;;;22.90;99.90;;;;;;5025769;28;20460;-75
2022/09/09 12:23:30;;;;;;;0.50;0.50;;;22.90;99.90;;;;;;5026906;28;20461;-75
2022/09/09 12:26:17;;;;;;;1.00;0.40;;;23.00;99.90;;;;;;5026274;28;20479;-75
2022/09/09 12:28:57;;;;;;;1.20;0.60;;;23.00;99.90;;;;;;5027862;28;20455;-74
2022/09/09 12:31:31;;;;;;;0.70;0.50;;;23.10;99.90;;;;;;5023631;28;20490;-75
2022/09/09 12:34:11;;;;;;;0.53;0.50;;;23.00;99.90;;;;;;5025685;28;20456;-75
2022/09/09 12:36:42;;;;;;;0.90;0.50;;;23.10;99.90;;;;;;5023670;28;20488;-75
2022/09/09 12:39:31;;;;;;;0.60;0.53;;;23.20;99.90;;;;;;5027992;28;20456;-76
2022/09/09 12:41:59;;;;;;;1.50;0.60;;;23.20;99.90;;;;;;5024258;28;20492;-75
2022/09/09 12:44:28;;;;;;;0.93;0.60;;;23.10;99.90;;;;;;5038918;28;20823;-75
2022/09/09 12:47:02;;;;;;;1.17;0.90;;;22.90;99.90;;;;;;5028301;28;20476;-75
2022/09/09 12:49:34;;;;;;;0.70;0.70;;;22.90;99.90;;;;;;5025690;28;21005;-75
2022/09/09 12:52:05;;;;;;;0.83;0.60;;;22.90;99.90;;;;;;5025369;28;21020;-76
2022/09/09 12:54:37;;;;;;;1.20;0.50;;;22.70;99.90;;;;;;5025783;28;20463;-75
2022/09/09 12:57:06;;;;;;;0.67;0.50;;;22.70;99.90;;;;;;5025303;28;20459;-75
2022/09/09 12:59:40;;;;;;;0.83;0.43;;;22.50;99.90;;;;;;5026663;28;20452;-75
2022/09/09 13:02:20;;;;;;;0.80;0.50;;;22.40;99.90;;;;;;5025099;28;20479;-75
2022/09/09 13:04:50;;;;;;;0.70;0.50;;;22.50;99.90;;;;;;5023653;28;20468;-75
2022/09/09 13:07:19;;;;;;;1.03;0.50;;;22.70;99.90;;;;;;5026580;28;20478;-75
2022/09/09 13:09:50;;;;;;;1.13;0.60;;;22.70;99.90;;;;;;5026854;28;20463;-73
2022/09/09 13:12:22;;;;;;;1.20;0.60;;;22.70;99.90;;;;;;5025718;28;20482;-76
2022/09/09 13:14:54;;;;;;;1.13;0.50;;;22.90;99.90;;;;;;5025388;28;20464;-76
2022/09/09 13:17:24;;;;;;;3.13;0.60;;;23.10;99.90;;;;;;5023142;28;20927;-74
2022/09/09 13:19:55;;;;;;;0.83;0.50;;;23.20;99.90;;;;;;5031781;28;20986;-76